RJSSRJSA

Guest
Details From RJSS - SENDAI
To RJSA - AOMORI
Flight Number -
Tags generated
Created
Modified
Stats Distance 156 nm / 290 km
Max Altitude 10,700 ft / 3,261 m
Waypoints 3
Social Downloads 2
Likes 0
Share VATSIM

Download

Looking for another format? Having issues loading an existing format? Contact us
Advertisement - Login to hide

Notes

Basic altitude profile: - Ascent Rate: 2500ft/min - Ascent Speed: 250kts - Cruise Altitude: 35000ft - Cruise Speed: 420kts - Descent Rate: 1500ft/min - Descent Speed: 250kts Options: - Use NATs: yes - Use PACOTS: yes - Use low airways: yes - Use high airways: yes

Route

RJSS PEONY RJSA

ID Type Via Altitude Latitude Longitude Leg Dist Tot Dist Heading (true) Name
O RJSS APT - 0 ft / 0 m 38.13873˚ 140.91825˚ - 0 nm - SENDAI
PEONY FIX - 10,700 ft / 3,261 m 39.83271˚ 140.87292˚ 101 nm 101 nm 359° / 359° -
O RJSA APT - 0 ft / 0 m 40.73327˚ 140.68859˚ 54 nm 156 nm 351° / 351° AOMORI

Altitude Profile

Advertisement - Login to hide

RJSS

Details ICAO RJSS (SDJ)
Name SENDAI
Region Japan
Timezone Asia/Tokyo (UTC+9.0)
Stats Elevation 15 ft / 5 m (AMSL)
Location 38.138734° 140.918248°
Runways 2
Magnetic Variation 8.081° W

METAR

RJSS 140200Z 29015KT 9999 FEW020 07/M08 Q1018

Decode

TAF

TAF RJSS 132305Z 1400/1506 29015KT 9999 FEW020 TEMPO 1400/1406 29020G30KT BECMG 1410/1412 26005KT BECMG 1500/1503 13005KT

Decode

Departure Runways

ID Width Length Bearing (true) Bearing (mag) Surface Threshold Offset Overrun Length
09 150 ft / 46 m 9,823 ft / 2,994 m 82.52° 90.60° Asphalt 0 ft / 0 m 200 ft / 61 m
12 150 ft / 46 m 3,932 ft / 1,199 m 117.79° 125.87° Asphalt 0 ft / 0 m 0 ft / 0 m
27 150 ft / 46 m 9,823 ft / 2,994 m 262.54° 270.62° Asphalt 0 ft / 0 m 200 ft / 61 m
30 150 ft / 46 m 3,932 ft / 1,199 m 297.80° 305.88° Asphalt 0 ft / 0 m 0 ft / 0 m

RJSA

Details ICAO RJSA (AOJ)
Name AOMORI
Region Japan
Timezone Asia/Tokyo (UTC+9.0)
Stats Elevation 664 ft / 202 m (AMSL)
Location 40.733272° 140.688594°
Runways 1
Magnetic Variation 8.939° W

METAR

RJSA 140200Z 22007KT 9999 FEW010 SCT030 02/M02 Q1018

Decode

TAF

TAF AMD TAF AMD RJSA 140220Z 1402/1506 24007KT 9999 FEW010 BKN020 BKN030 TEMPO 1409/1412 3000 -SHSN TEMPO 1412/1421 1500 -SHSN FEW005 BKN008 BKN015 TEMPO 1421/1506 3000 -SHSN

Decode

Destination Runways

ID Width Length Bearing (true) Bearing (mag) Surface Threshold Offset Overrun Length
06 200 ft / 61 m 9,838 ft / 2,999 m 51.79° 60.73° Asphalt 0 ft / 0 m 200 ft / 61 m
24 200 ft / 61 m 9,838 ft / 2,999 m 231.81° 240.75° Asphalt 0 ft / 0 m 200 ft / 61 m

Approach Navaids

Runway Type Ident Frequency Range Bearing (true) Bearing (mag) Slope Elevation
24 Localiser IMR 111.90 MHz 18 nm / 33 km 231.78° 240.72° - 664 ft / 202 m (AMSL)
24 Glidescope IMR 111.90 MHz 10 nm / 19 km 231.80° 240.74° 3.00° 664 ft / 202 m (AMSL)
24 DME IMR 111.90 MHz 18 nm / 33 km - - - 676 ft / 206 m (AMSL)